Florissant, Missouri
Current Conditions -  °F | °C
As of 12:51 AM on Thursday 27 Nov 2014 (Local Time) from KSTL Reporting Station
Light Snow Light Snow  
Wind Chill: 21°   Ceiling: 800
Heat Index: 32°   Visibility: 3mi
Dew Point: 28°   Wind: 16mph
Humidity: 85%   Direction: 350°N
Pressure: 30.26"   Gusts: NA
Location:  38.79°N, 90.32°W
Report Text: KSTL 270651Z 35014KT 3SM -SN BR OVC008 00/M02 A3026 RMK AO2 SFC VIS 4 SLP256 P0000 T00001022
Loading
Personal Weather Stations






























Interactive Weather Map New forecast layout! Learn more

10-Day Weather Forecast

Advertisements
Track Severe Weather on mobile